Terminal Aerodrome Forecast
Issued by NWS

Current Version | Previous Version | Text Only | Print | Product List | Glossary On
Versions: 1 2 3 4 5 6 7 8 9 10 11 12 13 14 15
000
FTUS45 KTFX 280520
TAFLWT
TAF
KLWT 280520Z 2806/2906 29010KT P6SM BKN060
      TEMPO 2806/2808 4SM -RASN BR SCT020 OVC040
     FM280800 29012KT 3SM -SN BR SCT010 OVC030
     FM281200 29015KT P6SM FEW030 SCT070=

USA.gov is the U.S. government's official web portal to all federal, state and local government web resources and services.